Time;durP1;ratioP1;P1;durP2;ratioP2;P2;SDS_P1;SDS_P2;PMS_P1;PMS_P2;Temp;Humidity;BMP_temperature;BMP_pressure;BME280_temperature;BME280_humidity;BME280_pressure;Samples;Min_cycle;Max_cycle;Signal;HPM_P1;HPM_P2
2022/06/20 06:42:56;;;;;;;;;19.67;17.67;;;;;19.65;61.39;100582.78;5141490;27;45564;-59
2022/06/20 06:45:25;;;;;;;;;18.33;18.33;;;;;19.77;61.94;100589.06;5122276;27;45662;-65
2022/06/20 06:48:12;;;;;;;;;21.00;19.33;;;;;19.94;61.40;100590.50;5107284;27;45497;-63
2022/06/20 06:50:43;;;;;;;;;17.00;16.00;;;;;20.12;61.07;100602.44;5122824;27;45456;-63
2022/06/20 06:53:37;;;;;;;;;18.67;18.67;;;;;20.22;60.68;100611.47;5125605;27;46714;-64
2022/06/20 06:56:28;;;;;;;;;20.33;17.00;;;;;20.16;59.26;100600.41;5110917;27;45428;-63
2022/06/20 06:59:10;;;;;;;;;15.33;15.33;;;;;20.21;59.58;100609.78;5126714;27;45548;-63
2022/06/20 07:01:44;;;;;;;;;16.00;15.00;;;;;20.27;59.18;100611.13;5131100;27;45428;-64
2022/06/20 07:04:12;;;;;;;;;20.00;16.00;;;;;20.39;58.84;100617.34;5115698;27;46214;-63
2022/06/20 07:06:49;;;;;;;;;15.67;13.67;;;;;20.51;58.42;100624.44;5120403;27;45488;-62
2022/06/20 07:09:17;;;;;;;;;18.33;17.33;;;;;20.58;58.00;100631.06;5115439;27;45616;-63
2022/06/20 07:11:58;;;;;;;;;18.00;16.00;;;;;20.69;58.43;100638.25;5124176;27;45496;-62
2022/06/20 07:14:23;;;;;;;;;14.33;14.33;;;;;20.79;57.39;100639.22;5116174;27;45527;-62
2022/06/20 07:16:51;;;;;;;;;16.67;16.33;;;;;20.84;57.15;100638.84;5120050;27;45398;-62
2022/06/20 07:19:20;;;;;;;;;15.67;14.33;;;;;20.73;57.38;100637.03;5111258;27;45504;-63
2022/06/20 07:21:45;;;;;;;;;17.67;15.67;;;;;20.75;56.66;100637.75;5111234;27;45473;-63
2022/06/20 07:24:20;;;;;;;;;12.00;12.00;;;;;20.74;57.08;100638.75;5100712;27;45809;-63
2022/06/20 07:26:56;;;;;;;;;18.33;17.33;;;;;20.75;56.76;100635.09;5110938;27;45848;-64
2022/06/20 07:29:27;;;;;;;;;15.00;14.00;;;;;20.80;56.89;100643.59;5111506;27;45469;-64
2022/06/20 07:32:11;;;;;;;;;18.33;15.00;;;;;20.74;56.41;100642.25;5111686;27;45536;-63
2022/06/20 07:34:45;;;;;;;;;18.67;18.00;;;;;20.57;56.72;100648.03;5095545;27;46200;-63
2022/06/20 07:37:17;;;;;;;;;13.00;13.00;;;;;20.54;56.55;100653.63;5090733;27;45419;-64
2022/06/20 07:39:51;;;;;;;;;14.67;14.33;;;;;20.49;56.54;100655.75;5110157;27;45558;-63
2022/06/20 07:42:36;;;;;;;;;14.67;14.67;;;;;20.44;56.85;100658.75;5099591;27;45522;-64
2022/06/20 07:45:11;;;;;;;;;17.00;15.00;;;;;20.57;56.68;100661.41;5096054;27;45509;-63
2022/06/20 07:47:46;;;;;;;;;18.67;17.00;;;;;20.46;56.96;100664.84;5110940;27;45459;-64
2022/06/20 07:50:17;;;;;;;;;16.67;16.67;;;;;20.42;57.09;100668.75;5099379;27;45462;-63
2022/06/20 07:52:53;;;;;;;;;63.00;52.75;;;;;20.44;56.54;100668.59;5084503;27;45501;-63
2022/06/20 07:55:23;;;;;;;;;13.00;13.00;;;;;20.38;56.71;100677.09;5076512;28;45531;-64
2022/06/20 07:57:58;;;;;;;;;18.33;18.33;;;;;20.25;57.16;100674.47;5077574;27;45529;-65
2022/06/20 08:00:29;;;;;;;;;19.33;17.33;;;;;20.31;57.27;100679.38;5077117;28;45427;-65
2022/06/20 08:03:28;;;;;;;;;17.33;17.33;;;;;20.40;57.01;100678.69;5086045;27;45457;-64
2022/06/20 08:06:00;;;;;;;;;20.33;20.33;;;;;20.54;56.48;100682.16;5072623;27;46119;-63
2022/06/20 08:08:44;;;;;;;;;17.33;15.33;;;;;20.59;56.67;100671.97;5093859;27;45489;-66
2022/06/20 08:11:40;;;;;;;;;16.00;16.00;;;;;20.65;56.19;100675.03;5092525;27;45573;-65
2022/06/20 08:14:03;;;;;;;;;18.00;16.00;;;;;20.72;56.04;100678.94;5081254;27;45563;-63
2022/06/20 08:16:31;;;;;;;;;19.33;19.33;;;;;20.67;56.26;100681.09;5078099;27;46146;-65
2022/06/20 08:18:58;;;;;;;;;13.67;13.67;;;;;20.68;56.38;100687.31;5094874;27;45520;-66
2022/06/20 08:21:34;;;;;;;;;19.00;17.33;;;;;20.72;56.10;100680.75;5092917;27;45480;-65
2022/06/20 08:24:05;;;;;;;;;15.00;13.33;;;;;20.69;56.50;100681.84;5085304;27;46002;-63
2022/06/20 08:26:41;;;;;;;;;20.00;20.00;;;;;20.71;55.59;100679.03;5096499;27;45524;-66
2022/06/20 08:29:16;;;;;;;;;17.67;16.67;;;;;20.55;55.84;100678.50;5096707;27;45643;-66
2022/06/20 08:31:51;;;;;;;;;20.33;17.33;;;;;20.50;55.91;100670.84;5096302;27;45443;-67
2022/06/20 08:34:28;;;;;;;;;15.00;14.00;;;;;20.36;55.88;100671.84;5096590;27;45588;-65
2022/06/20 08:37:05;;;;;;;;;19.67;19.67;;;;;20.42;56.47;100668.75;5096709;27;45453;-64
2022/06/20 08:40:01;;;;;;;;;20.67;18.33;;;;;20.51;56.35;100660.00;5096620;27;45441;-65
2022/06/20 08:42:58;;;;;;;;;17.33;16.33;;;;;20.63;56.49;100662.75;5095383;27;45598;-66
2022/06/20 08:45:30;;;;;;;;;17.33;17.33;;;;;20.74;55.76;100677.00;5096418;27;45512;-66
2022/06/20 08:47:55;;;;;;;;;24.00;20.67;;;;;20.81;55.63;100682.72;5096484;27;45481;-63
2022/06/20 08:50:35;;;;;;;;;22.00;20.67;;;;;20.92;55.25;100688.09;5096117;27;45500;-64
2022/06/20 08:53:33;;;;;;;;;19.33;19.33;;;;;20.94;54.96;100696.00;5095303;27;45541;-64
2022/06/20 08:56:05;;;;;;;;;21.00;20.00;;;;;20.83;55.45;100688.81;5095549;27;45541;-66
2022/06/20 08:58:58;;;;;;;;;19.00;19.00;;;;;20.85;54.76;100694.91;5096339;27;46110;-65
2022/06/20 09:01:31;;;;;;;;;21.67;19.67;;;;;20.88;55.21;100712.53;5096028;27;45408;-64
2022/06/20 09:04:34;;;;;;;;;20.00;19.00;;;;;20.79;55.24;100714.06;5095428;27;45449;-65
2022/06/20 09:07:05;;;;;;;;;20.00;19.67;;;;;20.94;55.03;100730.75;5077887;27;45413;-65
2022/06/20 09:09:48;;;;;;;;;24.00;23.00;;;;;20.99;55.08;100725.06;5096096;27;45508;-65
2022/06/20 09:12:31;;;;;;;;;20.67;19.67;;;;;21.02;54.96;100728.34;5095794;27;45449;-65
2022/06/20 09:15:11;;;;;;;;;23.33;22.33;;;;;21.03;54.66;100730.03;5077976;27;45423;-65
2022/06/20 09:17:52;;;;;;;;;21.33;18.33;;;;;21.02;54.32;100717.66;5096049;27;45612;-65
2022/06/20 09:20:42;;;;;;;;;23.33;22.67;;;;;20.96;54.87;100716.31;5096102;27;45453;-64
2022/06/20 09:23:17;;;;;;;;;24.33;21.00;;;;;21.02;54.39;100716.81;5095702;27;45539;-66
2022/06/20 09:26:07;;;;;;;;;22.67;21.00;;;;;20.96;54.52;100704.75;5096130;27;45524;-64
2022/06/20 09:28:35;;;;;;;;;23.67;19.67;;;;;21.11;54.43;100729.44;5077426;27;45568;-65
2022/06/20 09:31:08;;;;;;;;;16.67;16.33;;;;;21.17;54.42;100734.31;5095618;27;45500;-65
2022/06/20 09:34:18;;;;;;;;;18.00;17.33;;;;;21.20;54.23;100744.81;5095455;27;45523;-64
2022/06/20 09:36:53;;;;;;;;;17.00;14.00;;;;;21.06;54.48;100747.66;5069406;27;45683;-64
2022/06/20 09:39:46;;;;;;;;;18.33;18.33;;;;;21.08;54.30;100751.09;5095792;27;45525;-63
2022/06/20 09:42:29;;;;;;;;;20.33;17.00;;;;;20.94;54.66;100741.44;5073536;28;47331;-63
2022/06/20 09:45:07;;;;;;;;;21.00;20.00;;;;;21.04;54.34;100749.63;5075177;27;45509;-63
2022/06/20 09:47:55;;;;;;;;;21.00;19.33;;;;;21.10;54.10;100743.81;5075101;27;45421;-67
2022/06/20 09:50:34;;;;;;;;;17.33;16.00;;;;;21.18;54.35;100750.25;5075241;28;45499;-66
2022/06/20 09:53:08;;;;;;;;;20.00;18.67;;;;;21.08;54.00;100751.09;5074907;27;46086;-66
2022/06/20 09:55:51;;;;;;;;;21.00;18.67;;;;;21.07;54.11;100744.03;5075303;28;45582;-65
2022/06/20 09:58:29;;;;;;;;;15.67;15.67;;;;;21.22;54.25;100750.84;5075091;27;45500;-64
2022/06/20 10:01:03;;;;;;;;;18.00;17.67;;;;;21.35;53.80;100756.97;5073344;28;45582;-65
2022/06/20 10:03:47;;;;;;;;;19.00;18.67;;;;;21.38;53.60;100754.06;5073473;28;45473;-65
2022/06/20 10:06:28;;;;;;;;;18.00;17.33;;;;;21.42;53.16;100757.38;5074872;27;45515;-64
2022/06/20 10:09:06;;;;;;;;;22.33;21.67;;;;;21.47;53.15;100749.84;5074687;28;45510;-65
2022/06/20 10:11:52;;;;;;;;;25.00;24.00;;;;;21.44;53.74;100751.88;5073545;28;45511;-65
2022/06/20 10:14:51;;;;;;;;;28.00;25.33;;;;;21.55;53.49;100749.25;5074344;28;46836;-64
2022/06/20 10:18:04;;;;;;;;;19.67;19.67;;;;;21.66;53.52;100759.94;5073280;27;45536;-65
2022/06/20 10:20:52;;;;;;;;;22.00;20.67;;;;;21.67;52.94;100756.28;5012131;27;45613;-65
2022/06/20 10:23:39;;;;;;;;;23.33;21.67;;;;;21.72;53.16;100759.44;5074684;27;45536;-67
2022/06/20 10:26:10;;;;;;;;;21.33;21.33;;;;;21.83;52.97;100758.59;5072500;28;45509;-64
2022/06/20 10:28:47;;;;;;;;;21.67;19.33;;;;;21.89;52.40;100754.56;5074330;27;45480;-63
2022/06/20 10:31:41;;;;;;;;;21.00;21.00;;;;;21.99;52.69;100758.22;5074463;27;45971;-66
2022/06/20 10:34:25;;;;;;;;;23.67;22.00;;;;;22.07;52.91;100755.75;5066048;28;45573;-64
2022/06/20 10:36:57;;;;;;;;;27.00;25.33;;;;;22.12;52.15;100766.97;5074031;28;45467;-63
2022/06/20 10:39:49;;;;;;;;;23.00;20.67;;;;;22.16;52.04;100771.06;5074811;27;45426;-63
2022/06/20 10:42:30;;;;;;;;;24.33;22.33;;;;;22.21;52.04;100771.59;5090420;27;45474;-64
2022/06/20 10:45:14;;;;;;;;;24.00;24.00;;;;;22.25;52.23;100785.59;5094923;27;45436;-66
2022/06/20 10:47:45;;;;;;;;;23.33;23.33;;;;;22.22;52.25;100783.19;5093749;27;45757;-65
2022/06/20 10:50:36;;;;;;;;;23.00;22.00;;;;;22.21;51.98;100784.97;5094541;27;45491;-66
2022/06/20 10:53:19;;;;;;;;;24.67;24.67;;;;;22.22;52.13;100786.72;5094307;27;45422;-63
2022/06/20 10:55:58;;;;;;;;;27.67;25.67;;;;;22.25;51.79;100783.78;5094636;27;45454;-66
2022/06/20 10:58:36;;;;;;;;;23.67;23.00;;;;;22.24;51.72;100781.19;5094471;27;46231;-68
2022/06/20 11:01:31;;;;;;;;;27.67;26.00;;;;;22.20;52.00;100783.28;5094615;27;45405;-64
2022/06/20 11:04:20;;;;;;;;;27.67;23.33;;;;;22.22;52.08;100784.03;5092438;27;45470;-64
2022/06/20 11:07:22;;;;;;;;;24.00;23.00;;;;;22.28;52.09;100782.66;5077447;27;45380;-60
2022/06/20 11:10:15;;;;;;;;;27.00;26.00;;;;;22.21;51.66;100790.34;5094906;27;45630;-60
2022/06/20 11:12:49;;;;;;;;;25.00;23.67;;;;;22.14;52.46;100788.25;5080249;27;45524;-61
2022/06/20 11:15:45;;;;;;;;;27.67;27.67;;;;;22.15;52.45;100788.13;5072051;27;45450;-60
2022/06/20 11:18:19;;;;;;;;;30.67;30.00;;;;;22.23;52.16;100788.41;5074511;28;45468;-59
2022/06/20 11:20:52;;;;;;;;;32.67;30.33;;;;;22.29;52.23;100795.06;5074866;28;46251;-59
2022/06/20 11:23:21;;;;;;;;;55.33;44.67;;;;;22.38;52.61;100805.06;5074419;28;45509;-61
2022/06/20 11:26:08;;;;;;;;;49.00;41.00;;;;;22.48;51.82;100808.66;5073402;28;45505;-60
2022/06/20 11:28:48;;;;;;;;;29.33;28.67;;;;;22.41;51.99;100803.97;5074932;27;45592;-62
2022/06/20 11:32:00;;;;;;;;;23.33;23.33;;;;;22.51;51.79;100799.53;5081349;27;45597;-62
2022/06/20 11:34:28;;;;;;;;;29.33;28.33;;;;;22.61;51.57;100792.44;5079245;27;45386;-63
2022/06/20 11:37:02;;;;;;;;;27.67;27.33;;;;;22.60;51.23;100788.06;5095896;27;45435;-60
2022/06/20 11:40:07;;;;;;;;;26.00;26.00;;;;;22.55;51.20;100805.50;5097424;27;45513;-59
2022/06/20 11:42:57;;;;;;;;;26.33;24.67;;;;;22.59;51.21;100806.94;5096879;27;45541;-59
2022/06/20 11:45:38;;;;;;;;;29.33;26.67;;;;;22.67;51.56;100796.44;5097107;27;45585;-62
2022/06/20 11:48:24;;;;;;;;;24.33;24.33;;;;;22.79;51.25;100792.75;5084168;27;45490;-61
2022/06/20 11:51:10;;;;;;;;;27.00;26.67;;;;;22.86;50.90;100782.34;5097273;27;45496;-59
2022/06/20 11:54:00;;;;;;;;;23.00;23.00;;;;;22.94;50.67;100777.16;5085851;27;45545;-61
2022/06/20 11:56:34;;;;;;;;;21.00;21.00;;;;;23.05;50.86;100790.59;5076760;28;45505;-62
2022/06/20 11:59:14;;;;;;;;;19.67;19.67;;;;;23.12;50.75;100769.44;5076102;28;45501;-61
2022/06/20 12:02:16;;;;;;;;;18.67;18.33;;;;;23.27;50.11;100783.38;5057889;28;45446;-62
2022/06/20 12:04:55;;;;;;;;;19.33;17.67;;;;;23.32;49.91;100773.06;5076065;28;45435;-62
2022/06/20 12:07:32;;;;;;;;;25.33;23.00;;;;;23.27;49.67;100778.88;5076330;28;45529;-63
2022/06/20 12:10:01;;;;;;;;;17.33;17.00;;;;;23.26;49.76;100781.66;5076323;28;45513;-60
2022/06/20 12:12:32;;;;;;;;;19.00;19.00;;;;;23.34;50.41;100773.81;5076249;28;45417;-62
2022/06/20 12:15:00;;;;;;;;;20.67;19.33;;;;;23.33;50.04;100766.75;5076005;28;45728;-60
2022/06/20 12:17:40;;;;;;;;;18.00;16.00;;;;;23.42;50.22;100776.66;5075798;28;45514;-60
2022/06/20 12:25:47;;;;;;;;;18.67;17.33;;;;;23.65;49.56;100763.09;5075571;28;45791;-60
2022/06/20 12:28:24;;;;;;;;;16.33;16.33;;;;;23.63;49.04;100765.06;5057628;28;45509;-63
2022/06/20 12:31:07;;;;;;;;;19.67;18.67;;;;;23.64;48.95;100767.59;5075857;28;45499;-63
2022/06/20 12:33:35;;;;;;;;;15.00;14.00;;;;;23.51;49.51;100758.94;5075904;28;45652;-61
2022/06/20 12:36:11;;;;;;;;;19.67;17.67;;;;;23.57;48.61;100759.22;5075623;28;46032;-61
2022/06/20 12:38:49;;;;;;;;;15.33;15.33;;;;;23.62;49.72;100748.09;5075407;28;45587;-63
2022/06/20 12:41:19;;;;;;;;;17.33;16.33;;;;;23.72;48.85;100753.53;5075563;28;45467;-62
2022/06/20 12:43:55;;;;;;;;;15.33;15.33;;;;;23.79;49.05;100752.00;5075837;28;45536;-63
2022/06/20 12:46:47;;;;;;;;;15.33;15.33;;;;;23.84;48.69;100748.91;5075808;28;45557;-60
2022/06/20 12:49:21;;;;;;;;;19.00;17.00;;;;;23.93;47.72;100740.88;5075517;28;45539;-64
2022/06/20 12:51:55;;;;;;;;;15.67;15.67;;;;;23.93;48.54;100738.19;5075818;28;45453;-62
2022/06/20 12:54:36;;;;;;;;;15.75;14.50;;;;;24.05;48.48;100741.63;5075987;28;45501;-61
2022/06/20 12:57:39;;;;;;;;;15.50;13.75;;;;;24.17;47.66;100737.81;5075341;28;45485;-61
2022/06/20 13:00:41;;;;;;;;;14.33;14.33;;;;;24.28;47.89;100749.44;5075406;28;45558;-58
2022/06/20 13:03:29;;;;;;;;;13.00;13.00;;;;;24.40;47.87;100746.50;5075027;28;45501;-60
2022/06/20 13:06:17;;;;;;;;;14.67;13.67;;;;;24.45;47.51;100752.31;5074773;28;45456;-60
2022/06/20 13:09:01;;;;;;;;;14.25;14.25;;;;;24.53;47.51;100753.44;5075176;28;47684;-61
2022/06/20 13:11:49;;;;;;;;;13.00;13.00;;;;;24.52;47.08;100757.97;5074706;28;45447;-61
2022/06/20 13:14:32;;;;;;;;;14.00;12.25;;;;;24.60;47.28;100754.59;5075261;28;45520;-63
2022/06/20 13:17:24;;;;;;;;;14.50;13.50;;;;;24.61;47.24;100746.41;5075130;28;45463;-61
2022/06/20 13:20:04;;;;;;;;;15.00;13.50;;;;;24.71;46.92;100746.38;5074608;28;46192;-62
2022/06/20 13:22:46;;;;;;;;;11.75;11.25;;;;;24.72;46.68;100748.09;5075205;28;45672;-61
2022/06/20 13:25:35;;;;;;;;;16.50;12.50;;;;;24.71;46.75;100751.75;5056771;28;45424;-62
2022/06/20 13:28:22;;;;;;;;;15.00;14.75;;;;;24.75;46.79;100742.44;5056355;28;45495;-62
2022/06/20 13:31:06;;;;;;;;;12.25;12.25;;;;;24.88;46.83;100760.97;5074828;28;45773;-61
2022/06/20 13:33:40;;;;;;;;;13.00;12.75;;;;;24.98;46.46;100751.03;5074549;28;45428;-61
2022/06/20 13:36:05;;;;;;;;;14.50;14.00;;;;;25.00;46.42;100750.88;5073056;28;45424;-61
2022/06/20 13:39:04;;;;;;;;;12.00;12.00;;;;;25.05;46.90;100736.00;5073462;28;45622;-63
2022/06/20 13:41:47;;;;;;;;;14.75;14.75;;;;;25.07;46.63;100736.72;5072065;28;46564;-63
2022/06/20 13:44:18;;;;;;;;;12.50;12.50;;;;;25.14;46.57;100735.13;5072706;28;45493;-63
2022/06/20 13:46:50;;;;;;;;;11.75;11.75;;;;;25.23;46.46;100730.75;5073409;28;45561;-61
2022/06/20 13:49:23;;;;;;;;;14.25;13.25;;;;;25.31;45.82;100733.56;5073612;28;45515;-61
2022/06/20 13:52:08;;;;;;;;;15.25;14.25;;;;;25.38;45.82;100733.81;5073896;28;45505;-61
2022/06/20 13:54:49;;;;;;;;;10.25;10.25;;;;;25.35;45.30;100729.56;5074500;28;45529;-63
2022/06/20 13:57:36;;;;;;;;;13.00;12.75;;;;;25.27;44.97;100726.75;5074626;28;45447;-62
2022/06/20 14:00:27;;;;;;;;;14.50;12.00;;;;;25.25;45.79;100717.13;5074532;28;45464;-60
2022/06/20 14:03:04;;;;;;;;;11.25;11.25;;;;;25.35;45.30;100736.81;5074143;28;46673;-60
2022/06/20 14:05:33;;;;;;;;;13.00;10.50;;;;;25.37;45.37;100723.22;5074156;28;45546;-62
2022/06/20 14:08:13;;;;;;;;;10.25;10.25;;;;;25.50;45.46;100731.81;5056183;28;45541;-59
2022/06/20 14:11:11;;;;;;;;;9.50;9.25;;;;;25.62;45.11;100714.44;5074503;28;45536;-62
2022/06/20 14:13:40;;;;;;;;;14.75;13.00;;;;;25.70;45.00;100709.16;5073650;28;45457;-61
2022/06/20 14:16:31;;;;;;;;;12.00;9.25;;;;;25.73;44.42;100716.94;5074004;28;45561;-62
2022/06/20 14:18:57;;;;;;;;;10.50;10.25;;;;;25.77;44.42;100723.72;5074379;28;45481;-60
2022/06/20 14:21:30;;;;;;;;;10.75;10.00;;;;;25.82;44.61;100715.22;5073957;28;45589;-60
2022/06/20 14:23:56;;;;;;;;;13.50;12.25;;;;;25.91;43.90;100725.09;5055935;28;47591;-59
2022/06/20 14:26:34;;;;;;;;;11.75;11.75;;;;;25.92;44.30;100721.41;5074009;28;45533;-59
2022/06/20 14:29:02;;;;;;;;;11.00;9.00;;;;;26.17;44.47;100714.44;5074248;28;45499;-62
2022/06/20 14:31:39;;;;;;;;;11.25;11.25;;;;;26.49;42.98;100718.47;5055895;28;45633;-63
2022/06/20 14:37:48;;;;;;;;;9.20;9.20;;;;;27.56;42.13;100728.19;4972043;28;45521;-62
2022/06/20 14:40:25;;;;;;;;;9.00;9.00;;;;;27.85;40.92;100722.44;4955628;28;45538;-60
2022/06/20 14:43:13;;;;;;;;;10.00;10.00;;;;;28.04;40.82;100710.50;5049728;28;45615;-63
2022/06/20 14:45:48;;;;;;;;;12.75;10.25;;;;;28.79;39.92;100718.53;5073797;28;45485;-63
2022/06/20 14:48:24;;;;;;;;;12.50;12.50;;;;;29.81;37.96;100702.56;5074012;28;46058;-63
2022/06/20 14:50:56;;;;;;;;;12.00;12.00;;;;;30.47;35.89;100699.50;5074402;28;45505;-62
2022/06/20 14:53:40;;;;;;;;;10.25;10.25;;;;;30.34;35.77;100694.66;5055516;28;45562;-63
2022/06/20 14:56:14;;;;;;;;;9.25;9.25;;;;;30.05;35.72;100689.91;5073689;28;45477;-61
2022/06/20 14:59:11;;;;;;;;;11.00;10.00;;;;;29.72;36.29;100679.25;5073973;28;45523;-61
2022/06/20 15:01:47;;;;;;;;;11.20;11.20;;;;;29.35;37.05;100680.72;5074167;28;45453;-63
2022/06/20 15:04:21;;;;;;;;;13.50;13.50;;;;;28.99;37.12;100686.56;5076927;28;45439;-64
2022/06/20 15:06:46;;;;;;;;;12.25;11.50;;;;;28.67;38.15;100673.03;5077290;28;46350;-62
2022/06/20 15:09:33;;;;;;;;;12.00;11.75;;;;;28.41;38.42;100677.59;5077169;28;45495;-63
2022/06/20 15:12:25;;;;;;;;;8.75;8.75;;;;;28.23;38.58;100679.59;5076076;28;45447;-60
2022/06/20 15:15:03;;;;;;;;;10.50;10.50;;;;;28.06;39.35;100683.31;5077233;28;45387;-60
2022/06/20 15:17:45;;;;;;;;;10.50;9.75;;;;;27.96;39.37;100686.97;5059054;28;46670;-63
2022/06/20 15:20:25;;;;;;;;;10.00;10.00;;;;;27.88;39.50;100678.00;5077254;28;45411;-61
2022/06/20 15:23:00;;;;;;;;;11.00;10.00;;;;;27.77;39.59;100666.47;5077049;28;45480;-63
2022/06/20 15:25:39;;;;;;;;;12.75;10.25;;;;;27.65;40.25;100669.66;5077329;28;45475;-63
2022/06/20 15:28:29;;;;;;;;;11.00;10.25;;;;;27.56;40.25;100663.34;5076860;28;45505;-61
2022/06/20 15:30:55;;;;;;;;;10.80;10.80;;;;;27.45;40.46;100663.66;5076999;28;45451;-61
2022/06/20 15:33:29;;;;;;;;;11.00;11.00;;;;;27.29;40.23;100670.66;5077281;28;45550;-61
2022/06/20 15:36:05;;;;;;;;;9.50;9.50;;;;;27.18;40.19;100670.09;5058604;28;45589;-60
2022/06/20 15:38:58;;;;;;;;;10.25;10.00;;;;;27.11;40.51;100664.47;5077158;28;46205;-63
2022/06/20 15:41:46;;;;;;;;;10.50;10.00;;;;;27.03;41.03;100659.88;5076491;28;45540;-64
2022/06/20 15:44:28;;;;;;;;;13.75;11.50;;;;;27.04;40.87;100672.34;5077172;28;45466;-63
2022/06/20 15:47:15;;;;;;;;;12.50;12.50;;;;;27.00;40.96;100673.69;5076833;28;45704;-61
2022/06/20 15:49:43;;;;;;;;;9.00;9.00;;;;;26.93;41.08;100675.31;5076650;28;46330;-62
2022/06/20 15:52:35;;;;;;;;;9.60;9.00;;;;;27.18;40.97;100683.59;5076754;28;45509;-62
2022/06/20 15:55:06;;;;;;;;;18.50;14.25;;;;;27.39;40.96;100683.22;5076903;28;45489;-60
2022/06/20 15:57:50;;;;;;;;;8.25;7.75;;;;;27.42;40.39;100685.59;5076817;28;45421;-62
2022/06/20 16:00:39;;;;;;;;;11.00;9.75;;;;;27.47;40.00;100684.09;5076246;28;45589;-61
2022/06/20 16:03:09;;;;;;;;;11.40;10.80;;;;;27.46;39.89;100674.31;5057789;28;45574;-59
2022/06/20 16:05:53;;;;;;;;;7.75;7.75;;;;;27.47;39.77;100681.38;5057837;28;45510;-59
2022/06/20 16:08:43;;;;;;;;;8.75;8.75;;;;;27.43;39.66;100682.75;5076558;28;45489;-61
2022/06/20 16:11:39;;;;;;;;;7.25;7.25;;;;;27.37;40.28;100677.97;5076270;28;46113;-60
2022/06/20 16:14:08;;;;;;;;;8.25;8.25;;;;;27.34;40.15;100667.47;5057466;28;45524;-59
2022/06/20 16:16:42;;;;;;;;;8.50;7.50;;;;;27.34;40.54;100663.94;5076342;28;45442;-61
2022/06/20 16:19:15;;;;;;;;;9.25;9.00;;;;;27.39;40.01;100673.25;5076431;28;45513;-64
2022/06/20 16:21:43;;;;;;;;;7.75;7.75;;;;;27.45;39.74;100669.06;5076021;28;46080;-60
2022/06/20 16:24:29;;;;;;;;;10.40;10.00;;;;;27.48;39.67;100668.72;5057778;28;45387;-62
2022/06/20 16:26:55;;;;;;;;;8.75;8.75;;;;;27.50;39.39;100682.91;5076472;28;45498;-61
2022/06/20 16:29:25;;;;;;;;;7.25;7.25;;;;;27.39;39.12;100670.53;5076197;28;45714;-63
2022/06/20 16:31:58;;;;;;;;;7.25;7.25;;;;;27.37;39.67;100677.97;5076029;28;45833;-60
2022/06/20 16:34:32;;;;;;;;;9.00;9.00;;;;;27.44;39.62;100675.47;5076066;28;45434;-60
2022/06/20 16:37:09;;;;;;;;;8.00;8.00;;;;;27.50;39.12;100669.41;5076174;28;45506;-65
2022/06/20 16:39:35;;;;;;;;;7.50;7.50;;;;;27.60;38.99;100669.28;5057657;28;45610;-59
2022/06/20 16:42:07;;;;;;;;;8.75;8.75;;;;;27.63;37.85;100682.47;5075423;28;45439;-58
2022/06/20 16:44:41;;;;;;;;;8.40;7.60;;;;;27.60;38.51;100685.50;5057563;28;45463;-62
2022/06/20 16:47:45;;;;;;;;;8.60;7.00;;;;;27.56;38.05;100676.84;5057759;28;45455;-62
2022/06/20 16:50:21;;;;;;;;;7.00;5.75;;;;;27.47;38.03;100662.47;4973706;28;45571;-64
2022/06/20 16:53:17;;;;;;;;;4.00;4.00;;;;;27.29;37.68;100662.56;5060791;28;46162;-61
2022/06/20 16:55:53;;;;;;;;;4.80;4.80;;;;;27.16;38.48;100647.78;5075434;28;45560;-59
2022/06/20 16:58:45;;;;;;;;;4.50;4.50;;;;;27.12;38.06;100654.53;5075834;28;45526;-60
2022/06/20 17:01:29;;;;;;;;;5.00;4.00;;;;;27.05;37.93;100649.75;5075463;28;45443;-60
2022/06/20 17:04:13;;;;;;;;;5.40;4.20;;;;;26.93;37.84;100645.63;5090939;27;45677;-61
2022/06/20 17:06:53;;;;;;;;;16.75;14.00;;;;;26.84;38.09;100655.53;5096281;27;45514;-62
2022/06/20 17:09:30;;;;;;;;;6.20;6.20;;;;;26.80;38.33;100654.16;5096358;27;46019;-60
2022/06/20 17:12:27;;;;;;;;;5.50;5.50;;;;;26.64;37.61;100649.47;5096570;27;45523;-59
2022/06/20 17:15:34;;;;;;;;;8.00;7.75;;;;;26.54;38.36;100651.41;5096271;27;45474;-61
2022/06/20 17:18:25;;;;;;;;;5.40;4.00;;;;;26.50;38.50;100651.88;5067444;27;45478;-61
2022/06/20 17:20:55;;;;;;;;;6.60;5.80;;;;;26.53;38.44;100651.59;5096394;27;45528;-62
2022/06/20 17:23:58;;;;;;;;;5.00;5.00;;;;;26.56;38.26;100657.50;5095566;27;45496;-63
2022/06/20 17:26:40;;;;;;;;;5.00;4.75;;;;;26.60;38.16;100664.31;5076253;27;45621;-62
2022/06/20 17:29:05;;;;;;;;;5.00;3.00;;;;;26.62;38.06;100658.72;5095752;27;45554;-62
2022/06/20 17:31:41;;;;;;;;;2.50;2.50;;;;;26.70;37.83;100653.41;5095917;27;45541;-64
2022/06/20 17:34:15;;;;;;;;;6.00;4.75;;;;;26.73;36.70;100657.63;5095787;27;45468;-62
2022/06/20 17:36:49;;;;;;;;;6.00;5.25;;;;;26.69;36.80;100649.00;5095420;27;46175;-60
2022/06/20 17:39:37;;;;;;;;;7.00;5.00;;;;;26.70;36.70;100653.41;5095363;27;45545;-62
2022/06/20 17:42:08;;;;;;;;;4.00;4.00;;;;;26.75;37.13;100653.78;5062842;27;45576;-63
2022/06/20 17:44:46;;;;;;;;;5.00;5.00;;;;;26.73;36.90;100652.22;5095438;27;45485;-62
2022/06/20 17:47:35;;;;;;;;;5.00;5.00;;;;;26.70;37.20;100657.94;5095478;27;45519;-61
2022/06/20 17:50:27;;;;;;;;;5.20;4.40;;;;;26.62;37.20;100658.72;5095361;27;45465;-62
2022/06/20 17:53:26;;;;;;;;;4.50;4.50;;;;;26.55;37.24;100653.13;5094060;27;45545;-62
2022/06/20 17:56:25;;;;;;;;;4.25;4.25;;;;;26.43;37.11;100646.25;5095454;27;45465;-61
2022/06/20 17:58:50;;;;;;;;;4.25;4.25;;;;;26.35;37.21;100648.88;5095011;27;46620;-62
2022/06/20 18:01:25;;;;;;;;;5.00;5.00;;;;;26.25;37.22;100653.50;5094970;27;45537;-63
2022/06/20 18:04:13;;;;;;;;;7.00;7.00;;;;;26.16;37.45;100652.59;5095080;27;45476;-60
2022/06/20 18:06:41;;;;;;;;;6.25;6.00;;;;;26.08;37.38;100655.19;5076987;27;45537;-62
2022/06/20 18:09:45;;;;;;;;;6.00;3.00;;;;;25.99;37.51;100648.88;5095008;27;45457;-61
2022/06/20 18:12:17;;;;;;;;;7.20;5.00;;;;;25.84;37.64;100643.16;5037927;27;45563;-62
2022/06/20 18:14:50;;;;;;;;;4.00;4.00;;;;;25.74;37.80;100647.75;5095359;27;45506;-61
2022/06/20 18:17:31;;;;;;;;;7.25;4.50;;;;;25.59;37.87;100644.72;5095169;27;45517;-61
2022/06/20 18:20:22;;;;;;;;;4.00;4.00;;;;;25.48;37.68;100644.94;5094762;27;45489;-63
2022/06/20 18:23:24;;;;;;;;;9.00;8.25;;;;;25.40;38.11;100651.06;5094475;27;45490;-59
2022/06/20 18:25:55;;;;;;;;;9.25;9.00;;;;;25.35;38.28;100651.50;5080823;27;45647;-61
2022/06/20 18:28:22;;;;;;;;;8.00;8.00;;;;;25.28;38.37;100650.41;5094706;27;45538;-62
2022/06/20 18:30:58;;;;;;;;;4.50;3.25;;;;;25.22;38.54;100658.22;5073379;27;47349;-60
2022/06/20 18:33:28;;;;;;;;;6.50;5.25;;;;;25.13;39.15;100658.06;5082879;27;45505;-59
2022/06/20 18:35:55;;;;;;;;;4.25;4.25;;;;;25.07;39.50;100653.28;5078640;27;45413;-59
2022/06/20 18:38:26;;;;;;;;;9.25;9.25;;;;;25.10;39.44;100660.22;5075157;27;45672;-60
2022/06/20 18:40:54;;;;;;;;;6.00;5.50;;;;;25.07;39.51;100660.50;5082442;27;45493;-60
2022/06/20 18:43:27;;;;;;;;;43.33;37.67;;;;;25.00;39.83;100662.94;5088527;27;45643;-60
2022/06/20 18:45:54;;;;;;;;;39.33;35.00;;;;;24.98;39.90;100658.69;5086865;27;45490;-61
2022/06/20 18:48:47;;;;;;;;;10.25;8.50;;;;;24.95;39.87;100662.50;5071345;27;45517;-61
2022/06/20 18:51:30;;;;;;;;;36.33;33.33;;;;;24.94;39.91;100657.28;5073357;27;45483;-60
2022/06/20 18:54:16;;;;;;;;;12.25;11.75;;;;;24.92;39.97;100660.97;5074749;27;45465;-60
2022/06/20 18:56:55;;;;;;;;;8.50;8.25;;;;;24.92;40.04;100662.81;5074272;27;45626;-59
2022/06/20 18:59:50;;;;;;;;;47.33;40.67;;;;;24.91;40.15;100659.28;5073813;28;45563;-61
2022/06/20 19:02:21;;;;;;;;;45.67;39.67;;;;;24.87;40.20;100659.69;5073673;28;46045;-62
2022/06/20 19:04:52;;;;;;;;;19.50;18.50;;;;;24.84;40.12;100657.31;5073776;28;45450;-60